createdAt,value
2023-03-29T00:00:08.224Z,101502.78
2023-03-29T00:02:35.401Z,101496.69
2023-03-29T00:05:04.024Z,101499.31
2023-03-29T00:07:33.568Z,101495.81
2023-03-29T00:10:02.583Z,101486.22
2023-03-29T00:12:30.026Z,101486.09
2023-03-29T00:14:57.503Z,101480.03
2023-03-29T00:17:25.957Z,101489.63
2023-03-29T00:19:52.978Z,101473.06
2023-03-29T00:22:20.051Z,101472.22
2023-03-29T00:24:49.030Z,101466.97
2023-03-29T00:27:16.904Z,101461.72
2023-03-29T00:29:44.359Z,101460.81
2023-03-29T00:32:12.160Z,101466.06
2023-03-29T00:34:42.729Z,101456.47
2023-03-29T00:37:10.173Z,101454.78
2023-03-29T00:39:37.517Z,101453.00
2023-03-29T00:42:04.692Z,101446.91
2023-03-29T00:45:19.164Z,101460.84
2023-03-29T00:47:50.712Z,101451.28
2023-03-29T00:50:42.642Z,101446.97
2023-03-29T00:53:30.298Z,101450.47
2023-03-29T00:56:12.349Z,101451.38
2023-03-29T00:58:56.559Z,101444.53
2023-03-29T01:01:38.264Z,101438.50
2023-03-29T01:05:06.122Z,101445.53
2023-03-29T01:07:53.712Z,101443.75
2023-03-29T01:10:34.712Z,101439.44
2023-03-29T01:13:09.643Z,101442.94
2023-03-29T01:15:41.078Z,101433.38
2023-03-29T01:18:09.292Z,101422.97
2023-03-29T01:21:16.473Z,101431.78
2023-03-29T01:23:53.884Z,101429.16
2023-03-29T01:26:55.237Z,101421.41
2023-03-29T01:29:36.603Z,101417.97
2023-03-29T01:32:42.334Z,101418.97
2023-03-29T01:35:42.559Z,101420.75
2023-03-29T01:38:21.579Z,101405.06
2023-03-29T01:40:48.664Z,101409.50
2023-03-29T01:43:31.545Z,101399.06
2023-03-29T01:46:05.300Z,101389.53
2023-03-29T01:48:45.287Z,101380.81
2023-03-29T01:51:36.159Z,101386.13
2023-03-29T01:54:34.578Z,101378.34
2023-03-29T01:57:04.846Z,101373.97
2023-03-29T01:59:36.156Z,101363.47
2023-03-29T02:02:05.931Z,101364.38
2023-03-29T02:04:38.450Z,101365.28
2023-03-29T02:07:08.906Z,101361.03
2023-03-29T02:09:38.791Z,101355.78
2023-03-29T02:12:08.604Z,101359.31
2023-03-29T02:14:35.734Z,101363.63
2023-03-29T02:17:23.756Z,101354.91
2023-03-29T02:20:14.838Z,101354.91
2023-03-29T02:22:52.314Z,101348.78
2023-03-29T02:25:19.970Z,101344.44
2023-03-29T02:27:47.091Z,101346.22
2023-03-29T02:30:17.498Z,101346.25
2023-03-29T02:33:23.978Z,101334.97
2023-03-29T02:36:10.290Z,101332.38
2023-03-29T02:38:39.096Z,101323.69
2023-03-29T02:41:07.967Z,101324.59
2023-03-29T02:43:37.922Z,101318.44
2023-03-29T02:46:07.849Z,101327.16
2023-03-29T02:48:37.340Z,101317.53
2023-03-29T02:51:20.285Z,101320.16
2023-03-29T02:54:04.866Z,101316.69
2023-03-29T02:56:56.519Z,101309.69
2023-03-29T02:59:24.300Z,101306.25
2023-03-29T03:01:55.205Z,101314.16
2023-03-29T03:04:22.803Z,101308.00
2023-03-29T03:06:49.882Z,101310.63
2023-03-29T03:09:17.309Z,101304.50
2023-03-29T03:11:44.723Z,101308.06
2023-03-29T03:14:12.491Z,101302.88
2023-03-29T03:16:39.503Z,101305.50
2023-03-29T03:19:07.005Z,101302.03
2023-03-29T03:21:35.159Z,101302.91
2023-03-29T03:24:02.188Z,101294.19
2023-03-29T03:26:30.089Z,101295.91
2023-03-29T03:28:58.425Z,101295.94
2023-03-29T03:31:25.703Z,101295.06
2023-03-29T03:33:53.421Z,101295.13
2023-03-29T03:36:26.154Z,101299.44
2023-03-29T03:38:53.781Z,101297.75
2023-03-29T03:41:20.778Z,101300.34
2023-03-29T03:43:48.996Z,101292.50
2023-03-29T03:46:17.222Z,101296.94
2023-03-29T03:48:46.087Z,101303.09
2023-03-29T03:51:13.186Z,101292.59
2023-03-29T03:53:40.878Z,101286.47
2023-03-29T03:56:11.490Z,101289.13
2023-03-29T03:58:38.568Z,101290.88
2023-03-29T04:01:08.476Z,101285.63
2023-03-29T04:03:36.177Z,101293.47
2023-03-29T04:06:04.425Z,101289.13
2023-03-29T04:08:32.024Z,101289.09
2023-03-29T04:11:00.374Z,101281.16
2023-03-29T04:13:28.015Z,101277.66
2023-03-29T04:15:58.800Z,101281.09
2023-03-29T04:18:27.669Z,101282.03
2023-03-29T04:20:54.874Z,101283.78
2023-03-29T04:23:21.990Z,101278.53
2023-03-29T04:25:49.267Z,101271.63
2023-03-29T04:28:16.487Z,101270.75
2023-03-29T04:30:45.304Z,101268.16
2023-03-29T04:33:12.403Z,101270.81
2023-03-29T04:35:40.073Z,101277.88
2023-03-29T04:38:10.273Z,101268.31
2023-03-29T04:40:38.404Z,101270.94
2023-03-29T04:43:06.338Z,101268.31
2023-03-29T04:45:33.399Z,101263.09
2023-03-29T04:48:00.545Z,101266.59
2023-03-29T04:50:28.106Z,101270.16
2023-03-29T04:52:55.138Z,101271.94
2023-03-29T04:55:22.393Z,101266.69
2023-03-29T04:57:49.431Z,101263.25
2023-03-29T05:00:17.180Z,101254.56
2023-03-29T05:02:44.972Z,101258.06
2023-03-29T05:05:13.903Z,101254.59
2023-03-29T05:07:41.144Z,101253.75
2023-03-29T05:10:09.489Z,101255.53
2023-03-29T05:12:37.079Z,101247.69
2023-03-29T05:15:08.291Z,101254.72
2023-03-29T05:17:35.562Z,101256.47
2023-03-29T05:20:09.149Z,101249.50
2023-03-29T05:22:36.628Z,101251.28
2023-03-29T05:25:05.005Z,101247.78
2023-03-29T05:27:32.026Z,101257.47
2023-03-29T05:29:59.587Z,101244.34
2023-03-29T05:32:27.207Z,101253.13
2023-03-29T05:34:54.208Z,101253.16
2023-03-29T05:37:21.556Z,101256.66
2023-03-29T05:39:50.482Z,101257.63
2023-03-29T05:42:22.266Z,101269.88
2023-03-29T05:44:49.381Z,101266.41
2023-03-29T05:47:16.511Z,101271.72
2023-03-29T05:49:43.499Z,101282.25
2023-03-29T05:52:10.663Z,101275.28
2023-03-29T05:54:37.671Z,101271.00
2023-03-29T05:57:04.824Z,101262.28
2023-03-29T05:59:32.469Z,101263.19
2023-03-29T06:02:05.048Z,101271.19
2023-03-29T06:04:33.725Z,101266.91
2023-03-29T06:07:02.195Z,101268.75
2023-03-29T06:09:29.399Z,101271.47
2023-03-29T06:11:57.738Z,101261.91
2023-03-29T06:14:24.998Z,101267.25
2023-03-29T06:16:52.221Z,101263.81
2023-03-29T06:19:19.686Z,101269.94
2023-03-29T06:21:47.350Z,101274.41
2023-03-29T06:24:14.518Z,101274.50
2023-03-29T06:26:42.153Z,101273.66
2023-03-29T06:29:09.243Z,101275.41
2023-03-29T06:31:36.730Z,101269.31
2023-03-29T06:34:04.852Z,101272.00
2023-03-29T06:36:34.575Z,101274.69
2023-03-29T06:39:04.029Z,101264.25
2023-03-29T06:41:31.744Z,101264.34
2023-03-29T06:43:58.996Z,101261.84
2023-03-29T06:46:26.369Z,101262.88
2023-03-29T06:48:53.637Z,101266.53
2023-03-29T06:51:23.102Z,101266.63
2023-03-29T06:53:50.478Z,101260.63
2023-03-29T06:56:17.657Z,101259.84
2023-03-29T06:58:45.283Z,101261.75
2023-03-29T07:01:12.752Z,101260.97
2023-03-29T07:03:41.236Z,101266.28
2023-03-29T07:06:12.268Z,101268.09
2023-03-29T07:08:43.850Z,101269.03
2023-03-29T07:11:13.303Z,101276.06
2023-03-29T07:13:44.059Z,101271.66
2023-03-29T07:16:13.111Z,101271.72
2023-03-29T07:18:42.873Z,101269.97
2023-03-29T07:21:12.547Z,101267.41
2023-03-29T07:23:40.698Z,101273.59
2023-03-29T07:26:08.150Z,101280.66
2023-03-29T07:28:37.479Z,101283.28
2023-03-29T07:31:11.395Z,101285.06
2023-03-29T07:33:39.483Z,101289.44
2023-03-29T07:36:07.406Z,101298.19
2023-03-29T07:38:34.501Z,101294.72
2023-03-29T07:41:08.200Z,101297.34
2023-03-29T07:43:35.588Z,101305.25
2023-03-29T07:46:06.812Z,101304.41
2023-03-29T07:48:34.032Z,101311.38
2023-03-29T07:51:01.617Z,101317.53
2023-03-29T07:53:32.347Z,101324.50
2023-03-29T07:55:59.579Z,101322.72
2023-03-29T07:58:26.594Z,101321.00
2023-03-29T08:00:53.780Z,101321.09
2023-03-29T08:03:21.252Z,101316.81
2023-03-29T08:05:48.726Z,101318.63
2023-03-29T08:08:15.776Z,101324.75
2023-03-29T08:10:42.939Z,101315.09
2023-03-29T08:13:10.908Z,101318.63
2023-03-29T08:15:40.984Z,101311.59
2023-03-29T08:18:08.611Z,101308.94
2023-03-29T08:20:35.732Z,101311.59
2023-03-29T08:23:03.154Z,101306.31
2023-03-29T08:25:30.346Z,101311.63
2023-03-29T08:27:57.911Z,101306.31
2023-03-29T08:30:25.832Z,101305.44
2023-03-29T08:32:55.395Z,101301.94
2023-03-29T08:35:22.955Z,101300.28
2023-03-29T08:37:50.118Z,101293.25
2023-03-29T08:40:23.341Z,101293.25
2023-03-29T08:43:02.162Z,101288.06
2023-03-29T08:45:50.895Z,101297.78
2023-03-29T08:48:48.402Z,101289.97
2023-03-29T08:51:27.933Z,101293.47
2023-03-29T08:54:33.937Z,101295.22
2023-03-29T08:57:31.034Z,101297.00
2023-03-29T09:00:02.031Z,101290.88
2023-03-29T09:02:34.772Z,101289.97
2023-03-29T09:05:34.503Z,101288.22
2023-03-29T09:08:01.914Z,101276.69
2023-03-29T09:10:43.239Z,101287.97
2023-03-29T09:13:30.424Z,101292.34
2023-03-29T09:16:09.677Z,101285.94
2023-03-29T09:19:02.019Z,101293.00
2023-03-29T09:22:12.070Z,101289.47
2023-03-29T09:25:00.682Z,101290.38
2023-03-29T09:27:33.283Z,101287.81
2023-03-29T09:30:29.660Z,101292.34
2023-03-29T09:33:42.981Z,101301.16
2023-03-29T09:36:42.562Z,101307.41
2023-03-29T09:39:14.846Z,101296.06
2023-03-29T09:42:04.460Z,101296.94
2023-03-29T09:44:44.284Z,101302.22
2023-03-29T09:47:35.235Z,101297.81
2023-03-29T09:50:32.949Z,101294.34
2023-03-29T09:53:00.240Z,101284.66
2023-03-29T09:55:32.377Z,101283.72
2023-03-29T09:58:02.642Z,101295.13
2023-03-29T10:00:30.370Z,101288.91
2023-03-29T10:03:00.551Z,101280.91
2023-03-29T10:05:32.844Z,101295.81
2023-03-29T10:08:01.543Z,101287.81
2023-03-29T10:10:33.719Z,101298.34
2023-03-29T10:13:06.999Z,101294.75
2023-03-29T10:15:34.212Z,101294.59
2023-03-29T10:18:07.471Z,101296.09
2023-03-29T10:20:40.215Z,101298.44
2023-03-29T10:23:10.469Z,101286.63
2023-03-29T10:25:42.983Z,101275.94
2023-03-29T10:28:18.702Z,101273.25
2023-03-29T10:30:54.918Z,101272.50
2023-03-29T10:33:32.184Z,101272.47
2023-03-29T10:36:01.022Z,101264.41
2023-03-29T10:38:30.274Z,101263.34
2023-03-29T10:41:12.590Z,101277.31
2023-03-29T10:43:46.632Z,101269.22
2023-03-29T10:46:29.940Z,101274.28
2023-03-29T10:49:10.514Z,101250.25
2023-03-29T10:51:37.560Z,101244.06
2023-03-29T10:54:06.825Z,101248.41
2023-03-29T10:56:43.527Z,101241.97
2023-03-29T10:59:31.552Z,101240.16
2023-03-29T11:02:13.609Z,101236.41
2023-03-29T11:05:05.989Z,101232.44
2023-03-29T11:08:31.774Z,101237.19
2023-03-29T11:11:30.145Z,101236.44
2023-03-29T11:14:41.281Z,101240.84
2023-03-29T11:17:29.377Z,101229.63
2023-03-29T11:20:05.970Z,101217.63
2023-03-29T11:23:13.349Z,101215.88
2023-03-29T11:26:01.555Z,101208.81
2023-03-29T11:29:02.707Z,101228.06
2023-03-29T11:31:54.750Z,101227.06
2023-03-29T11:34:42.652Z,101226.84
2023-03-29T11:37:54.160Z,101226.44
2023-03-29T11:40:51.551Z,101228.84
2023-03-29T11:43:40.600Z,101220.88
2023-03-29T11:46:32.837Z,101227.06
2023-03-29T11:49:10.200Z,101216.22
2023-03-29T11:51:46.305Z,101220.50
2023-03-29T11:55:02.838Z,101225.53
2023-03-29T11:57:39.878Z,101215.47
2023-03-29T12:00:26.572Z,101194.81
2023-03-29T12:03:14.247Z,101197.97
2023-03-29T12:06:00.162Z,101209.25
2023-03-29T12:08:58.667Z,101218.72
2023-03-29T12:11:53.019Z,101214.75
2023-03-29T12:15:04.765Z,101208.88
2023-03-29T12:17:45.747Z,101211.09
2023-03-29T12:20:27.626Z,101212.50
2023-03-29T12:22:55.710Z,101210.59
2023-03-29T12:25:43.725Z,101217.53
2023-03-29T12:28:18.186Z,101209.00
2023-03-29T12:30:58.860Z,101208.44
2023-03-29T12:33:53.889Z,101207.56
2023-03-29T12:37:01.930Z,101208.94
2023-03-29T12:39:31.536Z,101208.41
2023-03-29T12:42:21.705Z,101203.47
2023-03-29T12:45:00.620Z,101192.16
2023-03-29T12:47:39.721Z,101181.47
2023-03-29T12:50:17.166Z,101153.66
2023-03-29T12:52:44.266Z,101153.28
2023-03-29T12:55:30.167Z,101154.44
2023-03-29T12:58:42.975Z,101156.97
2023-03-29T13:01:38.400Z,101136.56
2023-03-29T13:04:20.827Z,101135.38
2023-03-29T13:06:47.840Z,101137.63
2023-03-29T13:09:29.830Z,101136.78
2023-03-29T13:12:16.804Z,101135.75
2023-03-29T13:14:50.258Z,101128.38
2023-03-29T13:17:34.284Z,101137.97
2023-03-29T13:21:17.735Z,101125.16
2023-03-29T13:24:23.241Z,101123.25
2023-03-29T13:26:55.965Z,101124.19
2023-03-29T13:29:47.834Z,101114.44
2023-03-29T13:32:50.057Z,101108.34
2023-03-29T13:35:49.552Z,101099.66
2023-03-29T13:38:27.761Z,101091.47
2023-03-29T13:40:58.081Z,101093.13
2023-03-29T13:43:35.815Z,101085.00
2023-03-29T13:46:06.885Z,101091.13
2023-03-29T13:48:59.214Z,101084.00
2023-03-29T13:51:39.973Z,101075.22
2023-03-29T13:54:30.796Z,101065.22
2023-03-29T13:57:17.230Z,101074.47
2023-03-29T14:00:20.381Z,101080.19
2023-03-29T14:02:58.101Z,101072.88
2023-03-29T14:05:34.546Z,101066.72
2023-03-29T14:08:30.541Z,101072.50
2023-03-29T14:11:02.301Z,101065.69
2023-03-29T14:13:29.988Z,101068.81
2023-03-29T14:16:02.956Z,101061.50
2023-03-29T14:18:40.535Z,101049.09
2023-03-29T14:21:08.568Z,101055.25
2023-03-29T14:23:38.542Z,101052.13
2023-03-29T14:26:13.627Z,101047.00
2023-03-29T14:28:52.771Z,101038.22
2023-03-29T14:31:25.874Z,101039.34
2023-03-29T14:33:58.588Z,101031.41
2023-03-29T14:36:27.808Z,101036.59
2023-03-29T14:39:04.190Z,101028.06
2023-03-29T14:41:33.754Z,101020.75
2023-03-29T14:44:03.082Z,101019.00
2023-03-29T14:46:31.632Z,101011.75
2023-03-29T14:49:00.098Z,101012.97
2023-03-29T14:51:30.649Z,100997.34
2023-03-29T14:54:00.319Z,100997.00
2023-03-29T14:56:28.208Z,100986.91
2023-03-29T14:58:57.571Z,100980.41
2023-03-29T15:01:26.835Z,100984.81
2023-03-29T15:03:57.812Z,100979.28
2023-03-29T15:06:26.406Z,100977.13
2023-03-29T15:09:04.131Z,100982.22
2023-03-29T15:11:34.145Z,100979.03
2023-03-29T15:14:08.736Z,100977.00
2023-03-29T15:16:41.207Z,100964.03
2023-03-29T15:19:17.244Z,100954.56
2023-03-29T15:21:47.815Z,100964.28
2023-03-29T15:24:23.015Z,100958.59
2023-03-29T15:27:05.546Z,100935.69
2023-03-29T15:29:42.469Z,100935.34
2023-03-29T15:32:35.154Z,100944.19
2023-03-29T15:35:27.459Z,100934.19
2023-03-29T15:37:54.562Z,100922.16
2023-03-29T15:40:28.177Z,100930.31
2023-03-29T15:42:56.581Z,100929.66
2023-03-29T15:45:23.798Z,100932.50
2023-03-29T15:47:51.688Z,100917.44
2023-03-29T15:50:19.384Z,100913.09
2023-03-29T15:52:46.466Z,100907.94
2023-03-29T15:55:13.574Z,100896.44
2023-03-29T15:57:46.479Z,100888.59
2023-03-29T16:00:16.559Z,100884.31
2023-03-29T16:02:44.102Z,100882.66
2023-03-29T16:05:13.127Z,100879.34
2023-03-29T16:07:40.364Z,100876.78
2023-03-29T16:10:09.177Z,100860.09
2023-03-29T16:12:38.463Z,100867.22
2023-03-29T16:15:19.673Z,100852.13
2023-03-29T16:17:47.338Z,100855.53
2023-03-29T16:20:20.335Z,100850.03
2023-03-29T16:22:48.385Z,100846.28
2023-03-29T16:25:22.649Z,100846.19
2023-03-29T16:27:51.142Z,100833.75
2023-03-29T16:30:19.215Z,100828.47
2023-03-29T16:32:46.517Z,100840.91
2023-03-29T16:35:31.301Z,100832.13
2023-03-29T16:38:02.839Z,100825.25
2023-03-29T16:40:30.169Z,100823.69
2023-03-29T16:42:57.484Z,100818.44
2023-03-29T16:45:24.660Z,100816.13
2023-03-29T16:47:51.891Z,100815.47
2023-03-29T16:50:21.828Z,100819.22
2023-03-29T16:52:51.410Z,100814.09
2023-03-29T16:55:19.123Z,100809.88
2023-03-29T16:57:48.010Z,100810.94
2023-03-29T17:00:20.277Z,100807.41
2023-03-29T17:02:50.999Z,100806.66
2023-03-29T17:05:19.252Z,100802.34
2023-03-29T17:07:46.976Z,100802.47
2023-03-29T17:10:14.985Z,100799.00
2023-03-29T17:12:42.073Z,100791.22
2023-03-29T17:15:09.980Z,100789.69
2023-03-29T17:17:37.932Z,100794.31
2023-03-29T17:20:08.629Z,100790.94
2023-03-29T17:22:36.239Z,100786.59
2023-03-29T17:25:07.077Z,100787.72
2023-03-29T17:27:36.291Z,100785.19
2023-03-29T17:30:07.355Z,100783.59
2023-03-29T17:32:36.409Z,100782.84
2023-03-29T17:35:04.013Z,100776.78
2023-03-29T17:37:31.127Z,100771.69
2023-03-29T17:39:58.151Z,100770.09
2023-03-29T17:42:25.599Z,100764.94
2023-03-29T17:44:52.723Z,100763.31
2023-03-29T17:47:19.694Z,100760.81
2023-03-29T17:49:46.749Z,100761.81
2023-03-29T17:52:13.847Z,100756.69
2023-03-29T17:54:40.958Z,100760.28
2023-03-29T17:57:08.010Z,100755.97
2023-03-29T17:59:36.943Z,100758.75
2023-03-29T18:02:08.361Z,100756.19
2023-03-29T18:04:35.939Z,100756.28
2023-03-29T18:07:02.969Z,100749.34
2023-03-29T18:09:31.002Z,100751.22
2023-03-29T18:11:58.166Z,100754.84
2023-03-29T18:14:25.417Z,100747.00
2023-03-29T18:16:52.689Z,100752.41
2023-03-29T18:19:19.939Z,100765.72
2023-03-29T18:21:47.265Z,100756.09
2023-03-29T18:24:15.840Z,100749.19
2023-03-29T18:26:42.897Z,100745.69
2023-03-29T18:29:10.033Z,100752.84
2023-03-29T18:31:37.472Z,100738.78
2023-03-29T18:34:04.614Z,100742.34
2023-03-29T18:36:32.343Z,100744.16
2023-03-29T18:39:05.801Z,100734.50
2023-03-29T18:41:35.708Z,100737.22
2023-03-29T18:44:03.445Z,100742.59
2023-03-29T18:46:31.804Z,100737.34
2023-03-29T18:49:01.178Z,100732.09
2023-03-29T18:51:28.691Z,100728.59
2023-03-29T18:53:56.634Z,100730.44
2023-03-29T18:56:23.882Z,100739.28
2023-03-29T18:58:51.581Z,100731.41
2023-03-29T19:01:18.707Z,100727.13
2023-03-29T19:03:46.260Z,100735.13
2023-03-29T19:06:14.561Z,100733.47
2023-03-29T19:08:42.186Z,100729.16
2023-03-29T19:11:14.407Z,100730.09
2023-03-29T19:13:42.527Z,100723.94
2023-03-29T19:16:09.644Z,100726.66
2023-03-29T19:18:37.081Z,100721.44
2023-03-29T19:21:04.315Z,100716.22
2023-03-29T19:23:31.593Z,100718.00
2023-03-29T19:26:02.763Z,100707.41
2023-03-29T19:28:30.600Z,100707.47
2023-03-29T19:31:00.725Z,100708.41
2023-03-29T19:33:29.221Z,100701.41
2023-03-29T19:35:56.897Z,100691.72
2023-03-29T19:38:24.034Z,100689.94
2023-03-29T19:40:52.445Z,100682.97
2023-03-29T19:43:20.953Z,100681.25
2023-03-29T19:45:50.509Z,100668.94
2023-03-29T19:48:23.479Z,100670.69
2023-03-29T19:50:51.480Z,100665.44
2023-03-29T19:53:18.734Z,100673.38
2023-03-29T19:55:46.208Z,100664.59
2023-03-29T19:58:13.361Z,100661.97
2023-03-29T20:00:41.864Z,100651.47
2023-03-29T20:03:09.957Z,100656.78
2023-03-29T20:05:38.928Z,100652.34
2023-03-29T20:08:07.424Z,100641.81
2023-03-29T20:10:36.264Z,100644.50
2023-03-29T20:13:06.098Z,100633.94
2023-03-29T20:15:33.171Z,100633.94
2023-03-29T20:18:00.381Z,100627.78
2023-03-29T20:20:28.444Z,100621.63
2023-03-29T20:23:04.717Z,100617.25
2023-03-29T20:25:36.294Z,100616.38
2023-03-29T20:28:04.772Z,100613.78
2023-03-29T20:30:31.996Z,100610.34
2023-03-29T20:32:59.090Z,100603.31
2023-03-29T20:35:26.179Z,100596.28
2023-03-29T20:37:53.245Z,100579.56
2023-03-29T20:40:21.195Z,100578.75
2023-03-29T20:42:48.987Z,100580.56
2023-03-29T20:45:19.033Z,100577.06
2023-03-29T20:47:57.946Z,100576.28
2023-03-29T20:50:26.501Z,100577.16
2023-03-29T20:52:54.965Z,100563.03
2023-03-29T20:55:23.608Z,100556.00
2023-03-29T20:57:57.944Z,100551.56
2023-03-29T21:00:27.395Z,100553.34
2023-03-29T21:03:00.589Z,100555.13
2023-03-29T21:05:30.306Z,100556.06
2023-03-29T21:07:57.478Z,100557.88
2023-03-29T21:10:26.122Z,100558.78
2023-03-29T21:13:00.508Z,100557.03
2023-03-29T21:15:30.809Z,100562.28
2023-03-29T21:17:58.268Z,100551.66
2023-03-29T21:20:25.709Z,100543.72
2023-03-29T21:22:53.049Z,100544.56
2023-03-29T21:25:20.155Z,100549.00
2023-03-29T21:27:47.422Z,100545.47
2023-03-29T21:30:14.914Z,100542.00
2023-03-29T21:32:41.995Z,100546.41
2023-03-29T21:35:10.076Z,100546.41
2023-03-29T21:37:37.505Z,100541.13
2023-03-29T21:40:07.046Z,100535.84
2023-03-29T21:42:34.860Z,100527.03
2023-03-29T21:45:02.355Z,100517.34
2023-03-29T21:47:29.703Z,100516.53
2023-03-29T21:49:56.791Z,100523.59
2023-03-29T21:52:23.933Z,100518.28
2023-03-29T21:54:50.979Z,100509.50
2023-03-29T21:57:18.177Z,100505.09
2023-03-29T21:59:45.371Z,100502.50
2023-03-29T22:02:12.450Z,100501.63
2023-03-29T22:04:39.625Z,100500.72
2023-03-29T22:07:08.375Z,100501.56
2023-03-29T22:09:35.592Z,100498.91
2023-03-29T22:12:04.801Z,100500.75
2023-03-29T22:14:36.276Z,100498.94
2023-03-29T22:17:09.171Z,100496.38
2023-03-29T22:19:40.208Z,100491.09
2023-03-29T22:22:13.521Z,100497.31
2023-03-29T22:24:42.164Z,100493.81
2023-03-29T22:27:10.646Z,100494.75
2023-03-29T22:29:37.912Z,100484.25
2023-03-29T22:32:06.055Z,100492.19
2023-03-29T22:34:33.600Z,100485.16
2023-03-29T22:37:00.709Z,100486.03
2023-03-29T22:39:28.556Z,100484.31
2023-03-29T22:41:55.981Z,100475.50
2023-03-29T22:44:23.069Z,100479.88
2023-03-29T22:46:50.546Z,100479.91
2023-03-29T22:49:17.632Z,100486.09
2023-03-29T22:51:44.727Z,100482.59
2023-03-29T22:54:12.275Z,100482.56
2023-03-29T22:56:39.370Z,100478.16
2023-03-29T22:59:06.520Z,100477.25
2023-03-29T23:01:33.781Z,100474.63
2023-03-29T23:04:00.984Z,100478.13
2023-03-29T23:06:28.121Z,100469.28
2023-03-29T23:08:55.201Z,100478.09
2023-03-29T23:11:22.868Z,100463.19
2023-03-29T23:13:50.082Z,100472.84
2023-03-29T23:16:17.246Z,100460.53
2023-03-29T23:18:44.368Z,100461.44
2023-03-29T23:21:11.916Z,100463.25
2023-03-29T23:23:39.399Z,100466.78
2023-03-29T23:26:11.201Z,100463.19
2023-03-29T23:28:38.251Z,100452.63
2023-03-29T23:31:12.276Z,100449.16
2023-03-29T23:33:42.797Z,100458.00
2023-03-29T23:36:19.592Z,100453.56
2023-03-29T23:38:47.815Z,100451.72
2023-03-29T23:41:16.758Z,100444.56
2023-03-29T23:43:46.998Z,100438.31
2023-03-29T23:46:17.032Z,100439.09
2023-03-29T23:48:49.046Z,100442.56
2023-03-29T23:51:23.246Z,100449.59
2023-03-29T23:53:51.199Z,100449.53
2023-03-29T23:56:18.235Z,100438.94
2023-03-29T23:58:45.796Z,100438.03
